Time;durP1;ratioP1;P1;durP2;ratioP2;P2;SDS_P1;SDS_P2;PMS_P1;PMS_P2;Temp;Humidity;BMP_temperature;BMP_pressure;BME280_temperature;BME280_humidity;BME280_pressure;Samples;Min_cycle;Max_cycle;Signal;HPM_P1;HPM_P2
2021/08/21 00:02:14;;;;;;;6.20;3.08;;;;;;;20.50;45.25;100156.13;5107433;28;20024;-22
2021/08/21 00:04:40;;;;;;;6.40;3.95;;;;;;;20.38;45.43;100159.19;5107243;28;20039;-22
2021/08/21 00:07:05;;;;;;;7.82;3.45;;;;;;;20.27;46.26;100152.22;5107307;28;20024;-21
2021/08/21 00:09:35;;;;;;;7.72;3.55;;;;;;;20.34;45.62;100160.03;5107280;28;20403;-22
2021/08/21 00:12:00;;;;;;;6.78;3.83;;;;;;;20.31;45.69;100161.41;5107309;28;20070;-22
2021/08/21 00:14:26;;;;;;;5.47;3.25;;;;;;;20.30;45.67;100153.56;5107710;28;20039;-22
2021/08/21 00:16:51;;;;;;;5.55;3.47;;;;;;;20.06;46.53;100152.38;5107718;28;20028;-22
2021/08/21 00:19:17;;;;;;;6.63;3.70;;;;;;;20.13;46.67;100162.06;5107066;28;20083;-22
2021/08/21 00:21:43;;;;;;;6.88;3.55;;;;;;;20.11;46.56;100146.09;5107564;28;20085;-22
2021/08/21 00:24:08;;;;;;;5.95;3.42;;;;;;;19.75;47.31;100140.88;5107389;28;20839;-21
2021/08/21 00:26:34;;;;;;;5.80;3.70;;;;;;;20.06;46.99;100165.91;5107058;28;20054;-22
2021/08/21 00:28:59;;;;;;;7.15;3.72;;;;;;;19.92;47.06;100143.25;5107074;28;20038;-22
2021/08/21 00:31:25;;;;;;;6.22;4.00;;;;;;;20.05;47.21;100161.56;5107229;28;20031;-22
2021/08/21 00:33:50;;;;;;;6.18;3.72;;;;;;;19.82;47.71;100146.00;5107193;28;20106;-22
2021/08/21 00:36:16;;;;;;;6.38;3.88;;;;;;;19.84;47.52;100154.66;5107163;28;20026;-22
2021/08/21 00:38:41;;;;;;;5.72;3.60;;;;;;;19.56;48.28;100145.28;5107055;28;20179;-21
2021/08/21 00:41:07;;;;;;;6.40;3.47;;;;;;;19.63;48.57;100153.88;5107149;28;20038;-22
2021/08/21 00:43:35;;;;;;;6.38;3.85;;;;;;;19.52;48.62;100150.41;5107210;28;20043;-22
2021/08/21 00:46:00;;;;;;;6.25;3.97;;;;;;;19.55;48.61;100141.72;5089820;28;20020;-22
2021/08/21 00:48:26;;;;;;;8.43;3.92;;;;;;;19.40;49.23;100130.97;5110934;28;20877;-22
2021/08/21 00:50:51;;;;;;;6.43;4.03;;;;;;;19.66;49.08;100148.72;5110822;28;20032;-22
2021/08/21 00:53:17;;;;;;;6.35;4.03;;;;;;;19.56;49.52;100156.88;5110591;28;20038;-22
2021/08/21 00:55:43;;;;;;;6.40;4.10;;;;;;;19.57;49.38;100155.00;5110471;28;20028;-22
2021/08/21 00:58:10;;;;;;;6.93;4.20;;;;;;;19.42;49.69;100145.03;5110078;28;20052;-22
2021/08/21 01:00:36;;;;;;;8.15;4.35;;;;;;;19.38;50.18;100162.91;5092552;28;20031;-22
2021/08/21 01:03:01;;;;;;;8.00;4.45;;;;;;;19.07;51.61;100173.78;5110960;28;20039;-22
2021/08/21 01:05:27;;;;;;;6.18;4.15;;;;;;;19.20;51.06;100167.81;5110633;28;20032;-22
2021/08/21 01:07:54;;;;;;;7.70;4.40;;;;;;;19.03;51.97;100172.72;5110802;28;20056;-22
2021/08/21 01:10:20;;;;;;;9.20;4.32;;;;;;;18.84;52.38;100186.78;5110032;28;20055;-22
2021/08/21 01:12:47;;;;;;;6.88;4.40;;;;;;;18.97;52.49;100184.59;5110116;28;20108;-22
2021/08/21 01:15:13;;;;;;;8.63;4.35;;;;;;;18.99;52.72;100193.25;5110115;28;20106;-23
2021/08/21 01:17:38;;;;;;;6.90;4.25;;;;;;;18.73;52.75;100168.09;5110286;28;20053;-22
2021/08/21 01:20:05;;;;;;;8.68;4.63;;;;;;;18.69;53.55;100189.44;5109725;28;20027;-22
2021/08/21 01:22:31;;;;;;;8.52;5.15;;;;;;;18.45;54.40;100179.16;5110119;28;20035;-22
2021/08/21 01:25:00;;;;;;;7.22;4.40;;;;;;;18.67;53.51;100183.50;5109837;28;20035;-22
2021/08/21 01:27:31;;;;;;;6.65;4.28;;;;;;;18.27;54.58;100164.28;5109800;28;20055;-22
2021/08/21 01:29:56;;;;;;;8.15;4.75;;;;;;;18.11;55.58;100178.84;5110163;28;20020;-22
2021/08/21 01:32:22;;;;;;;7.07;4.18;;;;;;;17.76;56.62;100160.63;5110127;28;20051;-22
2021/08/21 01:34:49;;;;;;;6.97;4.20;;;;;;;17.97;56.13;100177.72;5110118;28;20035;-22
2021/08/21 01:37:18;;;;;;;7.22;3.90;;;;;;;17.81;56.75;100174.13;5109590;28;20057;-22
2021/08/21 01:39:47;;;;;;;7.80;4.70;;;;;;;18.02;56.39;100185.81;5109809;28;20102;-22
2021/08/21 01:42:13;;;;;;;8.65;4.72;;;;;;;18.03;56.55;100182.03;5109271;28;20077;-22
2021/08/21 01:44:39;;;;;;;6.97;4.15;;;;;;;18.02;56.87;100158.81;5110247;28;20031;-22
2021/08/21 01:47:04;;;;;;;9.10;4.75;;;;;;;17.88;57.44;100177.41;5109622;28;20036;-22
2021/08/21 01:49:30;;;;;;;11.02;4.20;;;;;;;17.78;57.83;100185.44;5109907;28;20466;-22
2021/08/21 01:52:00;;;;;;;7.75;4.47;;;;;;;17.79;58.06;100179.75;5109357;28;20423;-22
2021/08/21 01:54:25;;;;;;;7.68;4.50;;;;;;;17.87;57.54;100176.59;5109116;28;20110;-22
2021/08/21 01:56:52;;;;;;;7.03;4.47;;;;;;;18.07;57.27;100193.94;5108928;28;20475;-22
2021/08/21 01:59:29;;;;;;;10.57;4.85;;;;;;;18.15;57.03;100179.13;5108245;28;20412;-22
2021/08/21 02:01:54;;;;;;;8.18;4.40;;;;;;;18.11;56.77;100191.53;5109470;28;20063;-22
2021/08/21 02:04:20;;;;;;;10.30;5.10;;;;;;;18.27;56.38;100182.38;5108769;28;20793;-22
2021/08/21 02:06:46;;;;;;;8.80;4.97;;;;;;;18.42;56.38;100185.09;5109212;28;20039;-22
2021/08/21 02:09:13;;;;;;;8.05;4.90;;;;;;;18.42;55.67;100168.91;5109015;28;20047;-22
2021/08/21 02:11:38;;;;;;;8.35;4.80;;;;;;;18.27;56.69;100176.97;5109121;28;20031;-22
2021/08/21 02:14:04;;;;;;;7.13;5.00;;;;;;;18.31;56.37;100177.25;5109222;28;20406;-22
2021/08/21 02:16:29;;;;;;;9.43;4.95;;;;;;;18.26;56.89;100191.53;5109107;28;20023;-22
2021/08/21 02:18:55;;;;;;;9.45;5.20;;;;;;;18.25;57.10;100203.44;5108908;28;20459;-22
2021/08/21 02:21:21;;;;;;;8.00;4.75;;;;;;;18.38;56.47;100197.50;5109143;28;20042;-22
2021/08/21 02:23:47;;;;;;;8.57;4.93;;;;;;;18.73;55.12;100193.22;5108572;28;20440;-22
2021/08/21 02:26:12;;;;;;;7.50;4.85;;;;;;;18.87;54.24;100188.13;5108842;28;20060;-22
2021/08/21 02:28:38;;;;;;;7.47;4.53;;;;;;;18.72;55.36;100188.09;5108774;28;20080;-22
2021/08/21 02:31:03;;;;;;;8.77;5.07;;;;;;;18.46;55.74;100202.38;5108990;28;20040;-22
2021/08/21 02:33:29;;;;;;;9.90;4.80;;;;;;;18.79;54.77;100200.28;5108422;28;20024;-22
2021/08/21 02:35:54;;;;;;;7.53;4.97;;;;;;;18.07;56.50;100177.75;5108772;28;20065;-22
2021/08/21 02:38:22;;;;;;;7.95;5.30;;;;;;;18.03;56.88;100193.66;5108514;28;20840;-21
2021/08/21 02:40:48;;;;;;;11.35;5.32;;;;;;;17.98;57.20;100188.25;5090912;28;20778;-22
2021/08/21 02:43:13;;;;;;;9.82;4.90;;;;;;;18.02;56.95;100202.84;5108369;28;20035;-22
2021/08/21 02:45:39;;;;;;;10.65;5.28;;;;;;;18.07;57.25;100204.72;5108663;28;20871;-22
2021/08/21 02:48:05;;;;;;;13.68;5.75;;;;;;;18.15;56.96;100196.13;5107914;28;20114;-22
2021/08/21 02:50:30;;;;;;;11.80;5.47;;;;;;;18.00;57.50;100196.06;5108287;28;20636;-22
2021/08/21 02:52:56;;;;;;;9.60;5.13;;;;;;;18.16;56.52;100207.72;5108467;28;20039;-22
2021/08/21 02:55:21;;;;;;;6.82;4.65;;;;;;;18.25;56.57;100215.03;5108481;28;20032;-22
2021/08/21 02:57:47;;;;;;;7.82;5.05;;;;;;;18.21;56.48;100213.94;5107889;28;20028;-22
2021/08/21 03:00:13;;;;;;;10.73;4.80;;;;;;;18.12;56.67;100209.31;5108007;28;20044;-22
2021/08/21 03:02:40;;;;;;;8.07;4.60;;;;;;;18.29;56.35;100215.31;5107869;28;20034;-22
2021/08/21 03:05:06;;;;;;;9.67;5.17;;;;;;;18.36;56.06;100218.56;5108005;28;20040;-22
2021/08/21 03:07:32;;;;;;;9.50;5.22;;;;;;;18.20;56.33;100219.59;5108163;28;20280;-23
2021/08/21 03:09:57;;;;;;;10.93;4.63;;;;;;;18.30;55.67;100208.03;5107936;28;20039;-22
2021/08/21 03:12:23;;;;;;;13.07;5.53;;;;;;;18.45;55.48;100222.38;5107624;28;20039;-22
2021/08/21 03:14:48;;;;;;;8.52;4.68;;;;;;;18.32;56.32;100222.88;5107939;28;20031;-22
2021/08/21 03:17:14;;;;;;;9.05;5.03;;;;;;;18.11;57.01;100221.22;5107728;28;20419;-22
2021/08/21 03:19:39;;;;;;;11.85;5.40;;;;;;;18.01;57.36;100222.78;5108113;28;20035;-22
2021/08/21 03:22:05;;;;;;;19.55;5.57;;;;;;;18.20;56.98;100231.19;5107762;28;20047;-22
2021/08/21 03:24:30;;;;;;;42.47;8.20;;;;;;;18.82;55.46;100234.88;5108025;28;20080;-22
2021/08/21 03:26:56;;;;;;;10.68;5.50;;;;;;;18.55;56.10;100236.97;5107729;28;20034;-22
2021/08/21 03:29:21;;;;;;;15.60;5.63;;;;;;;18.27;56.36;100233.69;5107754;28;20031;-22
2021/08/21 03:31:47;;;;;;;7.22;4.82;;;;;;;18.04;57.27;100233.06;5107681;28;20475;-22
2021/08/21 03:34:12;;;;;;;9.68;5.07;;;;;;;18.19;56.79;100234.19;5107671;28;20027;-22
2021/08/21 03:36:38;;;;;;;20.00;6.00;;;;;;;17.97;58.10;100239.78;5107739;28;20034;-22
2021/08/21 03:39:03;;;;;;;12.63;6.22;;;;;;;17.90;57.51;100236.50;5107493;28;20032;-22
2021/08/21 03:41:29;;;;;;;16.58;5.63;;;;;;;17.77;58.42;100243.16;5107594;28;20032;-22
2021/08/21 03:43:54;;;;;;;24.75;6.38;;;;;;;18.10;57.15;100241.16;5107663;28;20092;-22
2021/08/21 03:46:19;;;;;;;20.50;6.35;;;;;;;17.92;58.33;100245.13;5107343;28;20434;-22
2021/08/21 03:48:45;;;;;;;9.48;5.15;;;;;;;17.88;58.85;100250.25;5107441;28;20038;-22
2021/08/21 03:51:10;;;;;;;10.30;5.72;;;;;;;18.15;57.22;100250.09;5107379;28;20035;-21
2021/08/21 03:53:36;;;;;;;15.98;5.55;;;;;;;18.16;56.95;100259.00;5107791;28;20047;-22
2021/08/21 03:56:01;;;;;;;14.00;6.18;;;;;;;18.25;56.69;100252.03;5107361;28;20032;-22
2021/08/21 03:58:27;;;;;;;12.27;6.28;;;;;;;18.89;55.07;100258.91;5107069;28;20044;-22
2021/08/21 04:00:52;;;;;;;8.77;5.35;;;;;;;18.26;57.40;100264.44;5107347;28;20081;-22
2021/08/21 04:03:18;;;;;;;11.00;5.75;;;;;;;17.99;58.30;100261.91;5107218;28;20035;-22
2021/08/21 04:05:43;;;;;;;11.93;6.78;;;;;;;17.79;59.57;100265.28;5107494;28;20031;-22
2021/08/21 04:08:09;;;;;;;13.93;6.25;;;;;;;17.93;59.89;100269.16;5107238;28;20089;-22
2021/08/21 04:10:34;;;;;;;11.88;5.90;;;;;;;17.83;59.02;100248.34;5089242;28;20036;-22
2021/08/21 04:13:00;;;;;;;16.65;6.30;;;;;;;18.01;58.30;100255.16;5107322;28;20036;-22
2021/08/21 04:15:25;;;;;;;14.50;5.72;;;;;;;17.97;57.86;100237.06;5107346;28;20088;-22
2021/08/21 04:17:51;;;;;;;11.25;5.53;;;;;;;18.06;57.61;100254.38;5107033;28;20032;-22
2021/08/21 04:20:16;;;;;;;9.30;5.60;;;;;;;18.05;57.69;100250.06;5107289;28;20031;-22
2021/08/21 04:22:42;;;;;;;8.73;5.97;;;;;;;18.14;57.37;100253.06;5110938;28;20036;-22
2021/08/21 04:25:08;;;;;;;12.43;7.05;;;;;;;18.18;57.69;100254.16;5111200;28;20027;-22
2021/08/21 04:27:33;;;;;;;31.15;22.05;;;;;;;18.20;57.42;100257.38;5093174;28;20037;-22
2021/08/21 04:29:59;;;;;;;54.22;38.67;;;;;;;18.23;57.25;100263.06;5111262;28;20130;-22
2021/08/21 04:32:24;;;;;;;35.97;24.88;;;;;;;17.94;58.20;100273.50;5110764;28;20035;-22
2021/08/21 04:34:50;;;;;;;26.42;20.27;;;;;;;17.96;58.06;100268.66;5111175;28;20031;-22
2021/08/21 04:37:16;;;;;;;16.98;10.68;;;;;;;17.96;58.48;100267.81;5110713;28;20024;-22
2021/08/21 04:39:42;;;;;;;9.93;6.05;;;;;;;18.35;58.01;100262.03;5111166;28;20077;-22
2021/08/21 04:42:07;;;;;;;12.73;7.15;;;;;;;18.39;57.42;100277.44;5110714;28;20031;-22
2021/08/21 04:44:33;;;;;;;12.05;6.25;;;;;;;18.27;57.70;100274.16;5111071;28;20046;-22
2021/08/21 04:46:59;;;;;;;8.93;6.35;;;;;;;17.81;59.58;100263.94;5110886;28;20024;-22
2021/08/21 04:49:24;;;;;;;10.80;6.53;;;;;;;17.92;59.16;100272.13;5110833;28;20034;-21
2021/08/21 04:51:49;;;;;;;11.23;6.97;;;;;;;17.94;60.19;100264.56;5110662;28;20055;-22
2021/08/21 04:54:15;;;;;;;11.32;6.28;;;;;;;18.25;58.86;100276.31;5110521;28;20043;-22
2021/08/21 04:56:40;;;;;;;9.52;6.05;;;;;;;18.27;57.88;100274.97;5110383;28;20031;-21
2021/08/21 04:59:06;;;;;;;10.60;5.43;;;;;;;18.19;57.48;100255.78;5110486;28;20434;-22
2021/08/21 05:01:31;;;;;;;10.25;5.40;;;;;;;18.45;57.31;100270.97;5110510;28;20088;-22
2021/08/21 05:03:57;;;;;;;8.75;5.60;;;;;;;18.64;57.42;100283.97;5110909;28;20039;-22
2021/08/21 05:06:22;;;;;;;10.55;5.50;;;;;;;18.92;56.54;100284.59;5110112;28;20357;-22
2021/08/21 05:08:48;;;;;;;9.60;5.60;;;;;;;19.02;55.79;100280.03;5110346;28;20036;-22
2021/08/21 05:11:13;;;;;;;9.20;5.65;;;;;;;19.51;54.44;100286.72;5092277;28;20046;-22
2021/08/21 05:13:39;;;;;;;10.02;5.70;;;;;;;19.83;54.56;100272.09;5110377;28;20032;-22
2021/08/21 05:16:04;;;;;;;8.75;5.30;;;;;;;20.02;53.03;100280.41;5110300;28;20039;-22
2021/08/21 05:18:36;;;;;;;7.57;5.22;;;;;;;19.53;53.97;100300.78;5110390;28;20036;-22
2021/08/21 05:21:10;;;;;;;9.23;4.95;;;;;;;19.43;54.72;100306.22;5109975;28;20050;-22
2021/08/21 05:23:37;;;;;;;8.23;5.15;;;;;;;19.44;55.15;100299.72;5110206;28;20031;-22
2021/08/21 05:26:03;;;;;;;10.35;4.65;;;;;;;19.72;53.29;100297.56;5092112;28;20042;-22
2021/08/21 05:28:28;;;;;;;7.53;4.65;;;;;;;20.28;52.53;100308.19;5109892;28;20027;-22
2021/08/21 05:30:54;;;;;;;8.00;5.28;;;;;;;20.51;51.70;100300.50;5110214;28;20612;-21
2021/08/21 05:33:20;;;;;;;9.18;5.15;;;;;;;20.72;51.79;100299.34;5074908;28;20028;-22
2021/08/21 05:35:45;;;;;;;8.18;4.68;;;;;;;20.54;51.70;100308.09;5109897;28;20035;-22
2021/08/21 05:38:11;;;;;;;7.57;4.80;;;;;;;20.93;50.73;100321.69;5109453;28;20053;-22
2021/08/21 05:40:37;;;;;;;11.00;5.07;;;;;;;20.95;50.53;100310.56;5109688;28;20031;-22
2021/08/21 05:43:02;;;;;;;10.52;5.03;;;;;;;20.64;50.85;100291.81;5109509;28;20050;-22
2021/08/21 05:45:28;;;;;;;11.45;4.93;;;;;;;20.70;51.64;100311.53;5109983;28;20027;-22
2021/08/21 05:47:54;;;;;;;13.10;5.35;;;;;;;20.97;50.51;100305.69;5109875;28;20027;-22
2021/08/21 05:50:21;;;;;;;8.93;4.63;;;;;;;20.95;50.26;100275.31;5109259;28;20399;-22
2021/08/21 05:52:46;;;;;;;9.02;4.68;;;;;;;21.28;49.94;100312.47;5109481;28;20122;-22
2021/08/21 05:55:12;;;;;;;9.25;5.03;;;;;;;21.16;50.88;100293.03;5091477;28;20043;-22
2021/08/21 05:57:37;;;;;;;7.35;5.43;;;;;;;21.25;49.83;100313.03;5109420;28;20459;-22
2021/08/21 06:00:07;;;;;;;9.75;5.40;;;;;;;21.02;50.33;100284.75;5109114;28;20077;-22
2021/08/21 06:02:33;;;;;;;7.53;5.53;;;;;;;21.55;50.11;100308.44;5108261;28;20024;-22
2021/08/21 06:04:58;;;;;;;8.98;5.82;;;;;;;21.98;49.26;100318.59;5107964;28;20027;-22
2021/08/21 06:07:24;;;;;;;9.13;4.95;;;;;;;21.84;49.28;100313.03;5108512;28;20028;-22
2021/08/21 06:09:49;;;;;;;8.00;5.72;;;;;;;21.19;49.77;100292.47;5109216;28;20468;-22
2021/08/21 06:12:14;;;;;;;7.50;5.53;;;;;;;21.28;50.17;100304.31;5108937;28;20036;-22
2021/08/21 06:14:40;;;;;;;9.23;5.10;;;;;;;21.83;49.11;100284.28;5109231;28;20028;-21
2021/08/21 06:17:06;;;;;;;7.95;5.30;;;;;;;21.95;48.07;100287.41;5109077;28;20078;-22
2021/08/21 06:19:32;;;;;;;7.88;5.40;;;;;;;21.89;48.19;100293.19;5109128;28;20036;-22
2021/08/21 06:21:57;;;;;;;7.78;5.18;;;;;;;22.66;45.63;100298.50;5109019;28;20506;-22
2021/08/21 06:24:23;;;;;;;8.45;4.95;;;;;;;22.61;46.64;100306.69;5073845;28;20038;-22
2021/08/21 06:26:48;;;;;;;8.07;5.20;;;;;;;22.76;46.61;100295.63;5108959;28;20503;-22
2021/08/21 06:29:13;;;;;;;8.13;5.00;;;;;;;22.99;45.37;100306.69;5108575;28;20028;-26
2021/08/21 06:31:39;;;;;;;8.25;4.80;;;;;;;22.79;46.37;100300.47;5109012;28;20035;-22
2021/08/21 06:34:04;;;;;;;9.90;5.40;;;;;;;22.93;44.50;100307.88;5108925;28;20052;-22
2021/08/21 06:36:30;;;;;;;8.05;4.75;;;;;;;22.86;44.86;100309.06;5108299;28;20028;-22
2021/08/21 06:38:55;;;;;;;7.50;4.95;;;;;;;22.95;44.37;100303.75;5108438;28;20036;-22
2021/08/21 06:41:21;;;;;;;8.45;5.00;;;;;;;23.08;45.20;100307.66;5108392;28;20544;-22
2021/08/21 06:43:46;;;;;;;10.73;5.38;;;;;;;23.35;43.15;100311.56;5107935;28;20038;-22
2021/08/21 06:46:12;;;;;;;8.45;5.45;;;;;;;23.46;44.30;100302.94;5108185;28;20038;-22
2021/08/21 06:48:37;;;;;;;9.85;5.53;;;;;;;23.51;43.84;100304.75;5108494;28;20562;-22
2021/08/21 06:51:02;;;;;;;11.23;5.22;;;;;;;23.69;44.64;100296.81;5108749;28;20031;-22
2021/08/21 06:53:30;;;;;;;8.73;5.35;;;;;;;23.84;43.45;100302.00;5108336;28;20038;-22
2021/08/21 06:55:55;;;;;;;12.77;5.18;;;;;;;23.84;43.10;100291.94;5108165;28;20407;-22
2021/08/21 06:58:21;;;;;;;10.50;5.35;;;;;;;24.25;42.58;100295.72;5107494;28;20062;-22
2021/08/21 07:00:47;;;;;;;10.00;5.70;;;;;;;24.76;41.84;100300.06;5108020;28;20039;-22
2021/08/21 07:03:12;;;;;;;8.50;5.00;;;;;;;24.35;42.60;100305.59;5107814;28;20038;-22
2021/08/21 07:05:38;;;;;;;8.18;5.25;;;;;;;24.69;41.16;100309.81;5108142;28;20020;-23
2021/08/21 07:08:04;;;;;;;8.10;4.70;;;;;;;24.67;40.96;100313.63;5104709;28;20085;-23
2021/08/21 07:10:29;;;;;;;8.57;5.18;;;;;;;24.80;40.03;100289.34;5080728;28;20216;-23
2021/08/21 07:12:55;;;;;;;7.38;5.13;;;;;;;24.83;39.79;100299.66;5097151;28;20508;-22
2021/08/21 07:15:20;;;;;;;9.68;5.30;;;;;;;25.01;39.17;100309.59;5098554;28;20031;-23
2021/08/21 07:17:46;;;;;;;7.53;5.18;;;;;;;25.13;38.53;100309.03;5096088;28;20408;-23
2021/08/21 07:20:12;;;;;;;8.15;5.65;;;;;;;24.86;39.44;100310.75;5097473;28;20052;-23
2021/08/21 07:22:37;;;;;;;6.88;5.20;;;;;;;24.95;39.52;100299.13;5097950;28;20093;-23
2021/08/21 07:25:03;;;;;;;8.98;5.53;;;;;;;24.60;39.94;100307.81;5095992;28;20471;-23
2021/08/21 07:27:29;;;;;;;7.72;5.75;;;;;;;24.85;39.33;100314.59;5097918;28;20024;-22
2021/08/21 07:29:54;;;;;;;7.72;5.82;;;;;;;24.98;41.29;100312.13;5097555;28;20031;-23
2021/08/21 07:32:20;;;;;;;8.32;5.63;;;;;;;25.18;38.97;100311.63;5087934;28;20032;-22
2021/08/21 07:34:45;;;;;;;17.77;6.40;;;;;;;25.18;40.88;100292.53;5087309;28;20039;-22
2021/08/21 07:37:11;;;;;;;9.02;5.82;;;;;;;25.37;38.40;100294.28;5069645;28;20028;-22
2021/08/21 07:39:36;;;;;;;7.55;5.45;;;;;;;25.60;37.65;100312.25;5087694;28;20103;-22
2021/08/21 07:42:02;;;;;;;7.70;5.35;;;;;;;25.37;38.27;100307.94;5087219;28;20040;-22
2021/08/21 07:44:27;;;;;;;7.80;5.18;;;;;;;25.48;40.20;100312.00;5087429;28;20039;-22
2021/08/21 07:46:53;;;;;;;8.18;5.43;;;;;;;25.59;38.07;100305.16;5087626;28;20372;-22
2021/08/21 07:49:18;;;;;;;10.18;6.00;;;;;;;25.63;38.28;100310.81;5087265;28;20057;-22
2021/08/21 07:51:44;;;;;;;8.93;5.80;;;;;;;25.98;38.00;100309.03;5087186;28;20039;-22
2021/08/21 07:54:09;;;;;;;7.43;5.22;;;;;;;25.90;37.02;100309.81;5086915;28;20129;-22
2021/08/21 07:56:35;;;;;;;8.57;5.72;;;;;;;25.93;36.64;100298.25;5088600;28;20104;-22
2021/08/21 07:59:00;;;;;;;8.55;5.28;;;;;;;26.06;36.08;100312.94;5072908;28;20060;-22
2021/08/21 08:01:26;;;;;;;10.07;5.60;;;;;;;26.10;36.03;100308.44;5091435;28;20036;-22
2021/08/21 08:03:51;;;;;;;10.50;5.63;;;;;;;26.23;36.47;100307.50;5091205;28;20040;-22
2021/08/21 08:06:16;;;;;;;10.25;6.20;;;;;;;26.26;35.35;100306.06;5090718;28;20111;-22
2021/08/21 08:08:42;;;;;;;10.43;5.63;;;;;;;26.49;35.57;100297.75;5091163;28;20032;-22
2021/08/21 08:11:07;;;;;;;7.65;5.78;;;;;;;26.45;36.34;100298.38;5091449;28;20031;-21
2021/08/21 08:13:33;;;;;;;9.13;5.72;;;;;;;26.55;35.06;100299.19;5090268;28;20032;-22
2021/08/21 08:15:59;;;;;;;10.70;5.95;;;;;;;26.52;35.49;100297.09;5090843;28;20571;-22
2021/08/21 08:18:25;;;;;;;10.63;6.07;;;;;;;26.83;34.90;100275.88;5090820;28;20039;-22
2021/08/21 08:20:51;;;;;;;7.85;5.20;;;;;;;27.06;34.60;100290.19;5091241;28;20032;-22
2021/08/21 08:23:16;;;;;;;7.32;5.35;;;;;;;27.44;34.98;100294.97;5090994;28;20087;-22
2021/08/21 08:25:42;;;;;;;10.10;5.68;;;;;;;27.49;32.78;100302.19;5091135;28;20020;-22
2021/08/21 08:28:07;;;;;;;7.28;5.43;;;;;;;27.06;33.34;100287.44;5090667;28;20028;-21
2021/08/21 08:30:33;;;;;;;8.85;5.32;;;;;;;27.41;34.21;100272.91;5090574;28;20028;-22
2021/08/21 08:32:58;;;;;;;8.68;5.43;;;;;;;27.76;33.21;100286.47;5090950;28;20523;-22
2021/08/21 08:35:24;;;;;;;8.13;5.10;;;;;;;27.73;32.55;100267.97;5090895;28;20531;-22
2021/08/21 08:37:50;;;;;;;8.25;5.32;;;;;;;28.16;31.97;100283.41;5090659;28;20039;-22
2021/08/21 08:40:15;;;;;;;9.23;5.07;;;;;;;28.07;32.67;100288.13;5090909;28;20085;-22
2021/08/21 08:42:42;;;;;;;8.95;5.20;;;;;;;27.89;33.35;100277.25;5090668;28;20522;-22
2021/08/21 08:45:08;;;;;;;8.18;5.55;;;;;;;27.95;32.81;100269.63;5090442;28;20127;-22
2021/08/21 08:47:35;;;;;;;7.63;5.30;;;;;;;27.93;32.90;100274.63;5090439;28;20141;-22
2021/08/21 08:50:03;;;;;;;9.30;5.07;;;;;;;28.51;31.85;100270.25;5090672;28;20416;-21
2021/08/21 08:52:29;;;;;;;9.95;5.05;;;;;;;28.67;31.04;100262.22;5090492;28;20028;-22
2021/08/21 08:54:54;;;;;;;6.90;4.75;;;;;;;28.50;31.96;100268.63;5090328;28;20074;-22
2021/08/21 08:57:48;;;;;;;8.27;5.32;;;;;;;28.58;31.57;100264.22;5090251;28;20491;-22
2021/08/21 09:00:18;;;;;;;8.68;4.80;;;;;;;28.87;30.79;100268.81;5089442;28;20067;-22
2021/08/21 09:02:45;;;;;;;6.20;4.32;;;;;;;28.48;32.38;100259.13;5090698;28;20472;-22
2021/08/21 09:05:12;;;;;;;9.07;4.93;;;;;;;28.42;30.83;100253.03;5090101;28;20031;-22
2021/08/21 09:07:42;;;;;;;8.95;4.70;;;;;;;28.99;29.61;100254.31;5089492;28;20131;-22
2021/08/21 09:10:27;;;;;;;6.32;4.57;;;;;;;28.86;30.65;100258.97;5090087;28;20024;-22
2021/08/21 09:13:12;;;;;;;6.57;4.85;;;;;;;29.10;28.21;100258.25;5090034;28;20031;-22
2021/08/21 09:15:39;;;;;;;6.75;4.72;;;;;;;28.95;30.06;100262.47;5090065;28;20510;-22
2021/08/21 09:18:13;;;;;;;7.65;4.25;;;;;;;28.85;29.52;100255.44;5089710;28;20024;-22
2021/08/21 09:20:47;;;;;;;6.25;4.35;;;;;;;28.90;29.33;100259.13;5089816;28;20032;-22
2021/08/21 09:23:20;;;;;;;6.70;4.53;;;;;;;29.02;31.01;100248.16;5071737;28;20020;-22
2021/08/21 09:25:46;;;;;;;6.60;4.30;;;;;;;28.85;30.05;100247.22;5089925;28;20092;-22
2021/08/21 09:28:25;;;;;;;7.32;4.40;;;;;;;28.95;29.28;100254.22;5089507;28;20647;-22
2021/08/21 09:31:06;;;;;;;7.43;4.68;;;;;;;28.77;30.01;100250.84;5089621;28;20089;-22
2021/08/21 09:33:32;;;;;;;8.05;4.15;;;;;;;29.21;29.40;100248.47;5089696;28;20123;-22
2021/08/21 09:35:58;;;;;;;5.78;4.05;;;;;;;29.91;28.65;100249.56;5071652;28;20106;-22
2021/08/21 09:38:27;;;;;;;8.02;4.60;;;;;;;30.05;28.01;100244.50;5089125;28;20081;-22
2021/08/21 09:40:57;;;;;;;6.85;3.92;;;;;;;30.14;27.58;100236.13;5089434;28;20035;-22
2021/08/21 09:43:23;;;;;;;4.93;3.70;;;;;;;30.61;26.56;100246.59;5089395;28;20028;-22
2021/08/21 09:45:50;;;;;;;7.45;3.95;;;;;;;29.69;27.58;100231.56;5071145;28;20028;-22
2021/08/21 09:48:16;;;;;;;6.95;3.97;;;;;;;29.77;28.75;100236.16;5054529;28;20036;-22
2021/08/21 09:50:42;;;;;;;5.88;4.13;;;;;;;29.89;28.28;100233.41;5089320;28;20462;-22
2021/08/21 09:53:08;;;;;;;5.60;3.97;;;;;;;30.21;27.06;100233.59;5089389;28;20545;-22
2021/08/21 09:55:34;;;;;;;5.85;3.70;;;;;;;29.74;27.83;100232.16;5089187;28;20036;-22
2021/08/21 09:58:04;;;;;;;6.43;4.07;;;;;;;29.99;28.00;100232.94;5088607;28;20065;-22
2021/08/21 10:00:30;;;;;;;5.65;3.85;;;;;;;29.90;27.50;100235.03;5089107;28;20059;-22
2021/08/21 10:02:56;;;;;;;7.13;4.00;;;;;;;30.13;27.46;100229.03;5088805;28;20028;-22
2021/08/21 10:05:22;;;;;;;7.93;4.47;;;;;;;30.11;28.80;100223.06;5089048;28;20032;-22
2021/08/21 10:07:52;;;;;;;5.68;4.13;;;;;;;30.58;26.68;100220.53;5088901;28;20028;-22
2021/08/21 10:10:22;;;;;;;6.63;4.57;;;;;;;30.67;26.68;100214.91;5071007;28;20110;-22
2021/08/21 10:12:47;;;;;;;7.35;4.13;;;;;;;30.41;29.76;100223.59;5088804;28;20043;-22
2021/08/21 10:15:13;;;;;;;6.05;4.13;;;;;;;30.39;27.08;100223.16;5054109;28;20428;-22
2021/08/21 10:17:39;;;;;;;5.63;3.60;;;;;;;30.60;27.59;100217.44;5088748;28;20482;-22
2021/08/21 10:20:05;;;;;;;7.60;4.55;;;;;;;30.49;26.78;100202.59;5069540;28;20028;-22
2021/08/21 10:22:31;;;;;;;6.35;3.75;;;;;;;31.39;26.19;100214.03;5053841;28;20032;-22
2021/08/21 10:25:04;;;;;;;6.97;3.97;;;;;;;31.60;26.53;100203.53;5088602;28;20054;-22
2021/08/21 10:27:51;;;;;;;5.60;4.10;;;;;;;31.12;25.80;100204.69;5070704;28;20036;-22
2021/08/21 10:30:26;;;;;;;5.88;3.80;;;;;;;31.06;26.05;100201.41;5087382;28;20036;-22
2021/08/21 10:32:59;;;;;;;6.20;3.88;;;;;;;31.06;25.27;100201.41;5071636;28;20032;-22
2021/08/21 10:35:46;;;;;;;7.72;4.10;;;;;;;31.45;26.49;100218.16;5088696;28;20032;-22
2021/08/21 10:38:33;;;;;;;5.45;3.78;;;;;;;31.93;26.54;100198.75;5088162;28;20036;-22
2021/08/21 10:41:10;;;;;;;6.45;4.28;;;;;;;31.22;26.76;100193.94;5088129;28;20562;-22
2021/08/21 10:43:52;;;;;;;5.25;3.55;;;;;;;31.36;26.88;100198.19;5098600;28;20024;-22
2021/08/21 10:46:30;;;;;;;6.55;4.05;;;;;;;31.61;26.24;100199.63;5097699;28;20118;-22
2021/08/21 10:48:59;;;;;;;6.60;4.05;;;;;;;31.23;26.81;100190.03;5096035;28;20039;-22
2021/08/21 10:51:42;;;;;;;7.32;3.65;;;;;;;31.53;25.52;100195.13;5097161;28;20031;-22
2021/08/21 10:54:34;;;;;;;6.25;4.00;;;;;;;31.43;25.72;100198.38;5097901;28;20028;-22
2021/08/21 10:57:26;;;;;;;5.85;3.65;;;;;;;31.74;25.34;100191.25;5069700;28;20054;-21
2021/08/21 10:59:52;;;;;;;5.32;3.80;;;;;;;31.54;25.55;100182.91;5098460;28;20046;-22
2021/08/21 11:02:20;;;;;;;6.30;4.05;;;;;;;31.93;25.08;100183.00;5096189;28;20020;-22
2021/08/21 11:04:46;;;;;;;6.13;3.90;;;;;;;32.10;25.32;100183.78;5097379;28;20070;-22
2021/08/21 11:07:38;;;;;;;5.97;4.05;;;;;;;32.52;24.20;100180.28;5098348;28;20051;-22
2021/08/21 11:10:22;;;;;;;6.60;4.00;;;;;;;31.61;24.82;100172.06;5088243;28;20067;-22
2021/08/21 11:12:50;;;;;;;5.63;3.70;;;;;;;31.47;25.84;100177.25;5098156;28;20020;-22
2021/08/21 11:15:32;;;;;;;5.45;3.85;;;;;;;31.82;26.01;100174.50;5080741;28;20066;-22
2021/08/21 11:17:58;;;;;;;7.85;3.78;;;;;;;32.02;28.34;100167.09;5096827;28;20112;-21
2021/08/21 11:20:25;;;;;;;7.93;3.80;;;;;;;31.82;26.65;100154.41;5097098;28;20028;-22
2021/08/21 11:23:05;;;;;;;6.35;4.18;;;;;;;31.82;26.46;100159.91;5098435;28;20035;-22
2021/08/21 11:25:31;;;;;;;7.30;4.10;;;;;;;32.01;30.15;100151.69;5098316;28;20031;-21